West Quincy, Missouri
Current Conditions -  °F | °C
As of 3:35 PM on Saturday 25 Oct 2014 (Local Time) from KHAE Reporting Station
Clear Clear  
Wind Chill: 79°   Ceiling: Unl
Heat Index: 79°   Visibility: 10mi
Dew Point: 41°   Wind: 5mph
Humidity: 26%   Direction: 350°N
Pressure: 30.03"   Gusts: NA
Location:  39.9055°N, 91.5111°W
Report Text: KHAE 252035Z AUTO 35004KT 10SM CLR 26/05 A3003 RMK AO2
Loading
Personal Weather Stations






























Interactive Weather Map
Tropical Storm Tracking
New forecast layout! Learn more

10-Day Weather Forecast

Advertisements
Track Severe Weather on mobile